Pueblitos, New Mexico
Current Conditions -  °F | °C
As of 1:35 AM on Thursday 27 Nov 2014 (Local Time) from KE80 Reporting Station
Clear Clear  
Wind Chill: 25°   Ceiling: Unl
Heat Index: 30°   Visibility: 10mi
Dew Point: 19°   Wind: 5mph
Humidity: 64%   Direction: 350°N
Pressure: 30.44"   Gusts: NA
Location:  34.5756°N, 106.588°W
Report Text: KE80 270835Z AUTO 35004KT 10SM CLR M01/M07 A3044 RMK AO2 T10101070
Loading
Personal Weather Stations






























Interactive Weather Map New forecast layout! Learn more

10-Day Weather Forecast

Advertisements
Track Severe Weather on mobile